Estación Meteorológica Peña el Pijo (Robertgarden) [ 12/10/18 12:24:41 CET ]

Fecha Hora Presion(HPa) Temp (°C) Humedad % Rocio (°C) Viento ( m/s) Direccion Lluvia 1Hora(mm) Lluvia 24H(mm) LLuvia Total(mm)
2018-Aug-08 01:01:54 1010.000 16.5 69 10.8       4.14 274.02
2018-Aug-08 02:01:57 1010.000 15.8 71 10.6       4.14 274.02
2018-Aug-08 03:01:24 1009.500 14.9 73 10.1       4.14 274.02
2018-Aug-08 04:01:26 1009.000 14.1 76 9.9       4.14 274.02
2018-Aug-08 05:01:24 1008.600 13.3 78 9.5       4.14 274.02
2018-Aug-08 06:01:28 1008.600 12.9 79 9.3       4.14 274.02
2018-Aug-08 07:01:39 1008.600 12.6 80 9.2       4.14 274.02
2018-Aug-08 08:01:49 1008.800 12.7 81 9.5       4.14 274.02
2018-Aug-08 09:01:56 1009.100 17.4 79 13.7       4.14 274.02
2018-Aug-08 10:01:59 1009.000 24.4 56 15.0       4.14 274.02
2018-Aug-08 11:01:36 1009.000 30.3 41 15.6       4.14 274.02
2018-Aug-08 12:01:40 1008.900 33.6 30 13.7       4.14 274.02
2018-Aug-08 13:01:36 1008.700 36.3 25 12.9 0.7 NNW   4.14 274.02
2018-Aug-08 14:01:44 1008.400 35.1 24 11.3       4.14 274.02
2018-Aug-08 15:01:32 1007.800 35.9 25 12.6       2.07 274.02
2018-Aug-08 16:01:51 1008.100 28.3 36 11.7         274.02
2018-Aug-08 17:31:49 1009.500 19.3 64 12.3     0.51 0.51 274.54
2018-Aug-08 18:01:56 1009.100 19.1 65 12.3       0.51 274.54
2018-Aug-08 19:01:46 1009.100 19.8 63 12.5       0.51 274.54
2018-Aug-08 20:01:48 1009.100 18.3 75 13.8     0.51 1.03 275.05
2018-Aug-08 21:02:08 1009.400 17.9 78 14.0       1.03 275.05
2018-Aug-08 22:01:44 1010.000 17.4 79 13.7       1.03 275.05
2018-Aug-08 23:01:35 1010.400 16.4 80 13.0       1.03 275.05

Temperatura Máxima:36°    Temperatura Mínima:12°
Presión Máxima:1010.400 Hpa    Presión Mínima:1007.800 Hpa


Volver